TAF Text Data
IDs:
Format:
Raw Decoded Include METAR

Data at: 1431 UTC 10 Jul 2020

KPWM 101128Z 1012/1112 05004KT 2SM BR BKN003
  FM101400 14007KT P6SM SCT250
  FM102200 12007KT 3SM BR OVC003
  FM110300 10010KT 1SM -SHRA BR OVC002